createdAt,value
2019-02-24T00:00:10.398Z,72.00
2019-02-24T00:02:40.003Z,72.10
2019-02-24T00:05:09.498Z,72.20
2019-02-24T00:07:38.953Z,72.30
2019-02-24T00:10:08.612Z,72.40
2019-02-24T00:12:38.062Z,72.50
2019-02-24T00:15:09.183Z,72.60
2019-02-24T00:17:38.644Z,72.70
2019-02-24T00:20:08.296Z,72.90
2019-02-24T00:22:37.789Z,73.00
2019-02-24T00:25:07.317Z,73.10
2019-02-24T00:27:36.785Z,73.30
2019-02-24T00:30:07.852Z,73.40
2019-02-24T00:32:37.290Z,73.50
2019-02-24T00:35:07.511Z,73.80
2019-02-24T00:37:37.048Z,74.00
2019-02-24T00:40:08.220Z,74.20
2019-02-24T00:42:39.141Z,74.40
2019-02-24T00:45:09.454Z,74.50
2019-02-24T00:47:38.910Z,74.80
2019-02-24T00:50:10.137Z,74.80
2019-02-24T00:52:39.621Z,75.00
2019-02-24T00:55:09.331Z,75.10
2019-02-24T00:57:38.769Z,75.10
2019-02-24T01:00:11.422Z,75.20
2019-02-24T01:02:40.896Z,75.40
2019-02-24T01:05:10.541Z,75.50
2019-02-24T01:07:40.033Z,75.60
2019-02-24T01:10:10.498Z,75.80
2019-02-24T01:12:39.963Z,76.10
2019-02-24T01:15:11.207Z,76.20
2019-02-24T01:17:40.652Z,76.30
2019-02-24T01:20:10.759Z,76.40
2019-02-24T01:22:40.271Z,76.50
2019-02-24T01:25:10.012Z,76.60
2019-02-24T01:27:39.458Z,76.60
2019-02-24T01:30:11.137Z,76.80
2019-02-24T01:32:40.605Z,76.70
2019-02-24T01:35:10.296Z,76.80
2019-02-24T01:37:39.749Z,76.90
2019-02-24T01:40:09.843Z,76.70
2019-02-24T01:42:39.322Z,76.90
2019-02-24T01:45:09.389Z,76.80
2019-02-24T01:47:38.857Z,76.80
2019-02-24T01:50:09.730Z,76.70
2019-02-24T01:52:39.188Z,76.70
2019-02-24T01:55:09.394Z,76.50
2019-02-24T01:57:39.114Z,76.60
2019-02-24T02:00:12.015Z,76.50
2019-02-24T02:02:41.484Z,76.60
2019-02-24T02:05:11.022Z,76.50
2019-02-24T02:07:40.462Z,76.50
2019-02-24T02:10:10.124Z,76.50
2019-02-24T02:12:39.600Z,76.70
2019-02-24T02:15:09.382Z,76.40
2019-02-24T02:17:38.844Z,76.40
2019-02-24T02:20:10.516Z,76.20
2019-02-24T02:22:39.961Z,76.20
2019-02-24T02:25:10.176Z,76.20
2019-02-24T02:27:39.595Z,76.10
2019-02-24T02:30:11.305Z,76.10
2019-02-24T02:32:40.777Z,76.60
2019-02-24T02:35:10.386Z,76.00
2019-02-24T02:37:39.853Z,75.80
2019-02-24T02:40:09.769Z,75.80
2019-02-24T02:42:39.216Z,75.70
2019-02-24T02:45:09.600Z,75.50
2019-02-24T02:47:39.067Z,75.40
2019-02-24T02:50:08.753Z,75.30
2019-02-24T02:52:38.184Z,75.20
2019-02-24T02:55:08.050Z,75.20
2019-02-24T02:57:37.481Z,75.20
2019-02-24T03:00:14.355Z,75.10
2019-02-24T03:02:43.811Z,75.00
2019-02-24T03:05:13.408Z,74.90
2019-02-24T03:07:44.523Z,75.10
2019-02-24T03:10:14.131Z,74.90
2019-02-24T03:12:43.577Z,74.20
2019-02-24T03:15:13.050Z,75.40
2019-02-24T03:17:42.525Z,74.80
2019-02-24T03:20:11.978Z,75.40
2019-02-24T03:22:41.439Z,74.80
2019-02-24T03:25:10.907Z,74.80
2019-02-24T03:27:40.385Z,74.70
2019-02-24T03:30:10.887Z,74.50
2019-02-24T03:32:40.334Z,74.70
2019-02-24T03:35:09.947Z,74.70
2019-02-24T03:37:39.397Z,74.70
2019-02-24T03:40:09.876Z,74.70
2019-02-24T03:42:39.337Z,74.60
2019-02-24T03:45:10.822Z,74.70
2019-02-24T03:47:40.289Z,74.80
2019-02-24T03:50:10.284Z,74.70
2019-02-24T03:52:39.754Z,74.90
2019-02-24T03:55:09.351Z,75.00
2019-02-24T03:57:38.947Z,74.90
2019-02-24T04:00:08.720Z,75.00
2019-02-24T04:02:38.401Z,74.90
2019-02-24T04:05:07.976Z,75.00
2019-02-24T04:07:37.432Z,75.00
2019-02-24T04:10:07.936Z,75.00
2019-02-24T04:12:37.482Z,75.10
2019-02-24T04:15:07.555Z,75.00
2019-02-24T04:17:36.984Z,75.00
2019-02-24T04:20:07.048Z,75.00
2019-02-24T04:22:36.532Z,75.00
2019-02-24T04:25:06.396Z,74.90
2019-02-24T04:27:35.850Z,74.80
2019-02-24T04:30:06.988Z,75.00
2019-02-24T04:32:36.444Z,74.70
2019-02-24T04:35:06.393Z,74.70
2019-02-24T04:37:35.855Z,74.60
2019-02-24T04:40:07.317Z,74.40
2019-02-24T04:42:36.774Z,74.20
2019-02-24T04:45:06.755Z,74.20
2019-02-24T04:47:36.186Z,74.20
2019-02-24T04:50:06.573Z,74.20
2019-02-24T04:52:36.055Z,74.10
2019-02-24T04:55:06.745Z,73.80
2019-02-24T04:57:36.219Z,73.80
2019-02-24T05:00:08.985Z,73.70
2019-02-24T05:02:38.416Z,73.60
2019-02-24T05:05:10.958Z,73.60
2019-02-24T05:07:40.443Z,73.40
2019-02-24T05:10:10.094Z,73.40
2019-02-24T05:12:39.547Z,73.40
2019-02-24T05:15:09.073Z,72.60
2019-02-24T05:17:38.811Z,73.00
2019-02-24T05:20:09.408Z,72.80
2019-02-24T05:22:38.864Z,72.80
2019-02-24T05:25:08.523Z,73.00
2019-02-24T05:27:38.006Z,72.70
2019-02-24T05:30:07.880Z,72.60
2019-02-24T05:32:37.358Z,72.70
2019-02-24T05:35:07.077Z,72.70
2019-02-24T05:37:36.589Z,72.60
2019-02-24T05:40:07.056Z,72.60
2019-02-24T05:42:36.536Z,72.70
2019-02-24T05:45:07.053Z,72.70
2019-02-24T05:47:36.496Z,72.60
2019-02-24T05:50:07.299Z,72.50
2019-02-24T05:52:36.773Z,72.50
2019-02-24T05:55:07.360Z,72.70
2019-02-24T05:57:36.806Z,72.50
2019-02-24T06:00:07.371Z,72.50
2019-02-24T06:02:36.813Z,72.60
2019-02-24T06:05:06.693Z,72.60
2019-02-24T06:07:36.175Z,72.50
2019-02-24T06:10:07.050Z,72.60
2019-02-24T06:12:36.500Z,72.50
2019-02-24T06:15:07.293Z,72.50
2019-02-24T06:17:36.741Z,72.60
2019-02-24T06:20:06.308Z,72.50
2019-02-24T06:22:35.789Z,72.60
2019-02-24T06:25:06.289Z,72.20
2019-02-24T06:27:35.758Z,72.20
2019-02-24T06:30:06.829Z,72.10
2019-02-24T06:32:36.277Z,72.10
2019-02-24T06:35:07.951Z,72.20
2019-02-24T06:37:37.403Z,72.10
2019-02-24T06:40:08.574Z,72.20
2019-02-24T06:42:38.040Z,72.10
2019-02-24T06:45:09.825Z,72.20
2019-02-24T06:47:39.283Z,72.10
2019-02-24T06:50:10.354Z,72.10
2019-02-24T06:52:39.863Z,72.00
2019-02-24T06:55:10.120Z,72.10
2019-02-24T06:57:39.652Z,72.20
2019-02-24T07:00:14.241Z,72.30
2019-02-24T07:02:42.633Z,72.30
2019-02-24T07:05:12.079Z,72.40
2019-02-24T07:07:41.548Z,72.30
2019-02-24T07:10:11.066Z,72.40
2019-02-24T07:12:40.487Z,72.60
2019-02-24T07:15:10.578Z,72.50
2019-02-24T07:17:40.023Z,72.50
2019-02-24T07:20:10.578Z,72.60
2019-02-24T07:22:40.076Z,72.90
2019-02-24T07:25:09.558Z,73.10
2019-02-24T07:27:39.017Z,73.20
2019-02-24T07:30:10.604Z,73.20
2019-02-24T07:32:40.050Z,73.10
2019-02-24T07:35:09.581Z,73.00
2019-02-24T07:37:39.066Z,72.60
2019-02-24T07:40:08.639Z,72.20
2019-02-24T07:42:38.108Z,72.30
2019-02-24T07:45:09.192Z,72.20
2019-02-24T07:47:38.631Z,71.60
2019-02-24T07:50:09.893Z,71.40
2019-02-24T07:52:39.393Z,70.90
2019-02-24T07:55:08.901Z,70.10
2019-02-24T07:57:38.369Z,69.90
2019-02-24T08:00:11.095Z,69.50
2019-02-24T08:02:40.528Z,68.60
2019-02-24T08:05:10.079Z,68.20
2019-02-24T08:07:39.556Z,68.60
2019-02-24T08:10:09.434Z,68.30
2019-02-24T08:12:38.881Z,67.50
2019-02-24T08:15:09.964Z,67.50
2019-02-24T08:17:39.497Z,67.20
2019-02-24T08:20:10.262Z,66.70
2019-02-24T08:22:39.839Z,66.70
2019-02-24T08:25:09.295Z,65.80
2019-02-24T08:27:38.754Z,65.80
2019-02-24T08:30:11.880Z,66.00
2019-02-24T08:32:41.422Z,65.30
2019-02-24T08:35:10.894Z,65.10
2019-02-24T08:37:40.325Z,64.50
2019-02-24T08:40:10.321Z,64.80
2019-02-24T08:42:39.838Z,64.70
2019-02-24T08:45:10.797Z,63.70
2019-02-24T08:47:40.278Z,63.40
2019-02-24T08:50:11.341Z,63.30
2019-02-24T08:52:40.892Z,62.40
2019-02-24T08:55:10.460Z,62.70
2019-02-24T08:57:40.017Z,62.70
2019-02-24T09:00:14.580Z,62.40
2019-02-24T09:02:44.051Z,62.50
2019-02-24T09:05:13.618Z,62.60
2019-02-24T09:07:43.051Z,62.20
2019-02-24T09:10:12.498Z,62.00
2019-02-24T09:12:41.949Z,62.10
2019-02-24T09:15:14.609Z,61.10
2019-02-24T09:17:44.125Z,61.10
2019-02-24T09:20:14.610Z,60.70
2019-02-24T09:22:44.927Z,59.90
2019-02-24T09:25:14.623Z,59.00
2019-02-24T09:27:44.096Z,59.60
2019-02-24T09:30:14.808Z,59.60
2019-02-24T09:32:44.283Z,59.40
2019-02-24T09:35:13.809Z,57.40
2019-02-24T09:37:43.286Z,57.40
2019-02-24T09:40:13.497Z,57.30
2019-02-24T09:42:42.976Z,57.40
2019-02-24T09:45:13.567Z,56.50
2019-02-24T09:47:46.907Z,56.30
2019-02-24T09:50:14.331Z,56.90
2019-02-24T09:52:43.829Z,55.40
2019-02-24T09:55:13.385Z,54.80
2019-02-24T09:57:42.847Z,53.50
2019-02-24T10:00:17.138Z,54.30
2019-02-24T10:02:46.709Z,53.20
2019-02-24T10:05:16.208Z,52.60
2019-02-24T10:07:45.720Z,52.60
2019-02-24T10:10:15.250Z,52.20
2019-02-24T10:12:44.716Z,52.50
2019-02-24T10:15:17.010Z,52.70
2019-02-24T10:17:46.454Z,53.00
2019-02-24T10:20:16.049Z,52.70
2019-02-24T10:22:45.527Z,52.50
2019-02-24T10:25:15.005Z,51.70
2019-02-24T10:27:44.467Z,51.50
2019-02-24T10:30:16.618Z,50.60
2019-02-24T10:32:46.088Z,51.10
2019-02-24T10:35:15.620Z,50.20
2019-02-24T10:37:45.100Z,50.40
2019-02-24T10:40:18.037Z,50.00
2019-02-24T10:42:47.526Z,50.20
2019-02-24T10:45:18.948Z,50.30
2019-02-24T10:47:48.473Z,50.10
2019-02-24T10:50:18.585Z,49.60
2019-02-24T10:52:48.137Z,49.10
2019-02-24T10:55:17.803Z,48.80
2019-02-24T10:57:47.287Z,48.60
2019-02-24T11:00:19.845Z,48.30
2019-02-24T11:02:49.287Z,47.90
2019-02-24T11:05:18.911Z,47.80
2019-02-24T11:07:48.489Z,48.10
2019-02-24T11:10:18.207Z,47.30
2019-02-24T11:12:47.653Z,47.40
2019-02-24T11:15:17.172Z,46.50
2019-02-24T11:17:46.649Z,46.70
2019-02-24T11:20:19.649Z,46.40
2019-02-24T11:22:49.095Z,46.30
2019-02-24T11:25:18.583Z,45.50
2019-02-24T11:27:48.047Z,46.50
2019-02-24T11:30:17.565Z,46.10
2019-02-24T11:32:47.305Z,46.00
2019-02-24T11:35:16.789Z,46.00
2019-02-24T11:37:46.454Z,44.80
2019-02-24T11:40:25.475Z,44.20
2019-02-24T11:42:54.922Z,44.30
2019-02-24T11:45:24.511Z,44.00
2019-02-24T11:47:53.973Z,43.70
2019-02-24T11:50:23.435Z,44.50
2019-02-24T11:52:52.900Z,43.40
2019-02-24T11:55:22.483Z,42.50
2019-02-24T11:57:51.976Z,42.70
2019-02-24T12:00:21.642Z,42.50
2019-02-24T12:02:51.101Z,42.90
2019-02-24T12:05:20.640Z,42.50
2019-02-24T12:07:50.110Z,42.90
2019-02-24T12:10:19.729Z,42.90
2019-02-24T12:12:49.191Z,42.50
2019-02-24T12:15:18.720Z,42.50
2019-02-24T12:17:48.264Z,41.30
2019-02-24T12:20:17.723Z,41.40
2019-02-24T12:22:47.325Z,41.20
2019-02-24T12:25:17.059Z,40.90
2019-02-24T12:27:48.371Z,40.00
2019-02-24T12:30:19.432Z,40.30
2019-02-24T12:32:48.988Z,40.50
2019-02-24T12:35:18.575Z,39.50
2019-02-24T12:37:48.026Z,39.70
2019-02-24T12:40:17.817Z,40.50
2019-02-24T12:42:47.314Z,40.50
2019-02-24T12:45:16.890Z,40.30
2019-02-24T12:47:46.380Z,40.10
2019-02-24T12:50:19.418Z,40.20
2019-02-24T12:52:48.900Z,39.90
2019-02-24T12:55:18.457Z,39.10
2019-02-24T12:57:47.927Z,39.20
2019-02-24T13:00:26.838Z,39.30
2019-02-24T13:02:56.428Z,38.90
2019-02-24T13:05:26.048Z,38.50
2019-02-24T13:07:55.566Z,38.20
2019-02-24T13:10:25.175Z,38.40
2019-02-24T13:12:54.724Z,37.90
2019-02-24T13:15:24.269Z,37.30
2019-02-24T13:17:53.800Z,37.00
2019-02-24T13:20:23.265Z,37.10
2019-02-24T13:22:52.781Z,37.70
2019-02-24T13:25:22.366Z,37.70
2019-02-24T13:27:51.844Z,37.50
2019-02-24T13:30:21.467Z,37.50
2019-02-24T13:32:50.937Z,37.60
2019-02-24T13:35:20.393Z,37.80
2019-02-24T13:37:49.964Z,37.60
2019-02-24T13:40:19.521Z,37.60
2019-02-24T13:42:49.016Z,37.70
2019-02-24T13:45:20.854Z,37.20
2019-02-24T13:47:50.458Z,37.00
2019-02-24T13:50:20.098Z,37.20
2019-02-24T13:52:49.560Z,37.40
2019-02-24T13:55:19.230Z,37.80
2019-02-24T13:57:48.850Z,37.50
2019-02-24T14:00:22.980Z,36.40
2019-02-24T14:02:52.443Z,36.40
2019-02-24T14:05:21.996Z,36.90
2019-02-24T14:07:51.447Z,37.00
2019-02-24T14:10:20.914Z,36.50
2019-02-24T14:12:50.463Z,36.50
2019-02-24T14:15:19.964Z,36.00
2019-02-24T14:17:49.464Z,35.70
2019-02-24T14:20:19.529Z,35.90
2019-02-24T14:22:49.085Z,36.00
2019-02-24T14:25:18.698Z,35.90
2019-02-24T14:27:48.160Z,35.20
2019-02-24T14:30:18.849Z,35.30
2019-02-24T14:32:48.391Z,35.20
2019-02-24T14:35:23.760Z,35.10
2019-02-24T14:37:53.370Z,35.00
2019-02-24T14:40:22.849Z,35.20
2019-02-24T14:42:52.405Z,35.40
2019-02-24T14:45:24.240Z,35.50
2019-02-24T14:47:53.885Z,35.90
2019-02-24T14:50:23.391Z,35.90
2019-02-24T14:52:53.038Z,35.90
2019-02-24T14:55:23.373Z,35.80
2019-02-24T14:57:52.857Z,35.70
2019-02-24T15:00:24.514Z,36.00
2019-02-24T15:02:54.042Z,36.10
2019-02-24T15:05:23.483Z,35.60
2019-02-24T15:07:52.972Z,35.50
2019-02-24T15:10:25.909Z,35.70
2019-02-24T15:12:55.459Z,35.40
2019-02-24T15:15:33.192Z,35.70
2019-02-24T15:18:00.635Z,35.20
2019-02-24T15:20:30.197Z,35.30
2019-02-24T15:22:59.691Z,35.20
2019-02-24T15:25:29.240Z,34.80
2019-02-24T15:27:58.722Z,35.00
2019-02-24T15:30:36.513Z,34.90
2019-02-24T15:33:06.430Z,34.20
2019-02-24T15:35:36.072Z,34.40
2019-02-24T15:38:05.853Z,34.50
2019-02-24T15:40:35.417Z,34.90
2019-02-24T15:43:05.006Z,35.20
2019-02-24T15:45:34.532Z,35.20
2019-02-24T15:48:04.100Z,35.10
2019-02-24T15:50:33.605Z,35.40
2019-02-24T15:53:03.095Z,35.40
2019-02-24T15:55:33.841Z,35.50
2019-02-24T15:58:03.305Z,35.60
2019-02-24T16:00:32.899Z,35.90
2019-02-24T16:03:02.384Z,36.30
2019-02-24T16:05:31.860Z,36.10
2019-02-24T16:08:01.365Z,36.10
2019-02-24T16:10:30.871Z,36.20
2019-02-24T16:13:00.355Z,35.90
2019-02-24T16:15:30.491Z,35.70
2019-02-24T16:17:59.967Z,35.80
2019-02-24T16:20:35.270Z,35.50
2019-02-24T16:23:04.908Z,35.40
2019-02-24T16:25:34.534Z,35.50
2019-02-24T16:28:03.983Z,35.30
2019-02-24T16:30:33.528Z,35.20
2019-02-24T16:33:10.161Z,35.70
2019-02-24T16:35:34.331Z,35.80
2019-02-24T16:38:04.131Z,35.90
2019-02-24T16:40:33.560Z,36.30
2019-02-24T16:43:03.091Z,36.40
2019-02-24T16:45:32.548Z,36.60
2019-02-24T16:48:02.029Z,36.70
2019-02-24T16:50:31.632Z,36.90
2019-02-24T16:53:01.089Z,37.00
2019-02-24T16:55:30.550Z,37.00
2019-02-24T16:58:00.028Z,37.10
2019-02-24T17:00:30.360Z,37.10
2019-02-24T17:02:59.838Z,37.40
2019-02-24T17:05:29.557Z,37.70
2019-02-24T17:07:59.061Z,37.90
2019-02-24T17:10:30.772Z,38.30
2019-02-24T17:13:01.851Z,38.50
2019-02-24T17:15:31.455Z,38.70
2019-02-24T17:18:00.991Z,39.00
2019-02-24T17:20:31.556Z,39.20
2019-02-24T17:23:01.158Z,39.40
2019-02-24T17:25:30.623Z,39.70
2019-02-24T17:28:00.087Z,40.30
2019-02-24T17:30:29.579Z,40.00
2019-02-24T17:32:59.063Z,40.20
2019-02-24T17:35:28.598Z,40.40
2019-02-24T17:37:58.173Z,40.50
2019-02-24T17:40:27.667Z,40.80
2019-02-24T17:42:57.200Z,41.00
2019-02-24T17:45:26.764Z,41.40
2019-02-24T17:47:56.211Z,41.70
2019-02-24T17:50:25.671Z,42.10
2019-02-24T17:52:55.209Z,42.40
2019-02-24T17:55:24.721Z,42.80
2019-02-24T17:57:54.250Z,43.10
2019-02-24T18:03:05.117Z,44.00
2019-02-24T18:05:34.568Z,44.20
2019-02-24T18:08:04.022Z,44.30
2019-02-24T18:10:33.505Z,44.50
2019-02-24T18:13:02.915Z,44.60
2019-02-24T18:15:32.421Z,44.50
2019-02-24T18:18:01.906Z,44.60
2019-02-24T18:20:31.418Z,44.80
2019-02-24T18:23:00.946Z,45.00
2019-02-24T18:25:31.120Z,45.00
2019-02-24T18:28:00.560Z,45.10
2019-02-24T18:30:31.082Z,45.40
2019-02-24T18:33:00.629Z,45.50
2019-02-24T18:35:30.053Z,45.80
2019-02-24T18:37:59.501Z,46.00
2019-02-24T18:40:28.962Z,46.20
2019-02-24T18:43:00.589Z,46.50
2019-02-24T18:45:29.717Z,46.70
2019-02-24T18:47:59.221Z,46.70
2019-02-24T18:50:28.750Z,46.80
2019-02-24T18:52:58.205Z,47.10
2019-02-24T18:55:27.679Z,47.90
2019-02-24T18:57:57.209Z,47.60
2019-02-24T19:00:26.659Z,47.70
2019-02-24T19:02:56.153Z,48.20
2019-02-24T19:05:25.752Z,48.70
2019-02-24T19:07:55.201Z,48.90
2019-02-24T19:10:25.207Z,48.90
2019-02-24T19:12:54.726Z,48.90
2019-02-24T19:15:25.554Z,49.00
2019-02-24T19:17:55.016Z,49.10
2019-02-24T19:20:25.506Z,49.40
2019-02-24T19:22:54.990Z,49.70
2019-02-24T19:25:24.616Z,50.00
2019-02-24T19:27:54.118Z,50.40
2019-02-24T19:30:23.710Z,50.50
2019-02-24T19:32:53.182Z,50.70
2019-02-24T19:35:22.837Z,51.30
2019-02-24T19:37:52.406Z,51.80
2019-02-24T19:40:22.759Z,52.20
2019-02-24T19:42:52.238Z,52.50
2019-02-24T19:45:26.770Z,52.60
2019-02-24T19:47:56.377Z,52.60
2019-02-24T19:50:25.959Z,52.70
2019-02-24T19:52:55.418Z,53.00
2019-02-24T19:55:24.942Z,53.30
2019-02-24T19:57:54.429Z,53.40
2019-02-24T20:00:25.792Z,53.50
2019-02-24T20:02:55.359Z,53.60
2019-02-24T20:05:24.976Z,53.70
2019-02-24T20:07:54.673Z,53.80
2019-02-24T20:10:30.028Z,53.90
2019-02-24T20:12:59.459Z,54.40
2019-02-24T20:15:28.925Z,55.00
2019-02-24T20:17:58.469Z,55.60
2019-02-24T20:20:27.921Z,56.00
2019-02-24T20:22:57.331Z,56.30
2019-02-24T20:25:26.791Z,56.50
2019-02-24T20:27:56.281Z,56.70
2019-02-24T20:30:34.872Z,56.80
2019-02-24T20:33:04.433Z,56.60
2019-02-24T20:35:33.935Z,57.20
2019-02-24T20:38:03.553Z,57.70
2019-02-24T20:40:32.988Z,58.00
2019-02-24T20:43:02.461Z,58.00
2019-02-24T20:45:31.892Z,58.10
2019-02-24T20:48:01.326Z,58.10
2019-02-24T20:50:34.131Z,58.40
2019-02-24T20:53:03.985Z,58.60
2019-02-24T20:55:33.449Z,58.60
2019-02-24T20:58:03.013Z,59.00
2019-02-24T21:00:42.183Z,59.40
2019-02-24T21:03:11.787Z,59.50
2019-02-24T21:05:41.387Z,59.60
2019-02-24T21:08:10.921Z,59.80
2019-02-24T21:10:40.540Z,60.20
2019-02-24T21:13:10.166Z,60.60
2019-02-24T21:15:39.719Z,60.70
2019-02-24T21:18:09.366Z,60.90
2019-02-24T21:20:39.069Z,61.20
2019-02-24T21:23:08.687Z,61.20
2019-02-24T21:25:38.378Z,61.80
2019-02-24T21:28:07.995Z,61.70
2019-02-24T21:30:38.511Z,61.80
2019-02-24T21:33:07.943Z,62.00
2019-02-24T21:35:37.668Z,63.00
2019-02-24T21:38:07.289Z,62.30
2019-02-24T21:40:37.367Z,62.20
2019-02-24T21:43:07.085Z,62.40
2019-02-24T21:45:36.902Z,62.20
2019-02-24T21:48:07.084Z,62.00
2019-02-24T21:50:37.447Z,62.30
2019-02-24T21:53:07.096Z,62.80
2019-02-24T21:55:36.721Z,62.70
2019-02-24T21:58:06.297Z,63.10
2019-02-24T22:00:36.632Z,63.60
2019-02-24T22:03:07.941Z,63.90
2019-02-24T22:05:37.469Z,64.00
2019-02-24T22:08:06.894Z,63.90
2019-02-24T22:10:36.609Z,63.90
2019-02-24T22:13:06.107Z,64.10
2019-02-24T22:15:35.557Z,64.10
2019-02-24T22:18:05.196Z,64.00
2019-02-24T22:20:34.734Z,64.20
2019-02-24T22:23:04.249Z,64.60
2019-02-24T22:25:33.827Z,64.50
2019-02-24T22:28:03.478Z,64.60
2019-02-24T22:30:32.924Z,64.80
2019-02-24T22:33:02.401Z,65.10
2019-02-24T22:35:31.972Z,65.20
2019-02-24T22:38:01.468Z,65.10
2019-02-24T22:40:31.037Z,65.20
2019-02-24T22:43:00.628Z,65.00
2019-02-24T22:45:30.280Z,65.10
2019-02-24T22:47:59.883Z,65.10
2019-02-24T22:50:29.593Z,65.00
2019-02-24T22:52:59.040Z,65.00
2019-02-24T22:55:28.562Z,65.00
2019-02-24T22:57:58.099Z,65.00
2019-02-24T23:00:51.746Z,65.00
2019-02-24T23:03:30.338Z,65.00
2019-02-24T23:06:00.031Z,65.00
2019-02-24T23:08:29.463Z,65.00
2019-02-24T23:10:58.936Z,64.80
2019-02-24T23:13:28.783Z,65.00
2019-02-24T23:15:58.457Z,65.40
2019-02-24T23:18:28.008Z,65.30
2019-02-24T23:20:57.692Z,65.50
2019-02-24T23:23:27.176Z,65.60
2019-02-24T23:25:56.708Z,65.30
2019-02-24T23:28:26.300Z,65.40
2019-02-24T23:30:55.896Z,65.50
2019-02-24T23:33:25.562Z,65.50
2019-02-24T23:35:55.042Z,65.70
2019-02-24T23:38:24.553Z,65.30
2019-02-24T23:40:54.008Z,65.30
2019-02-24T23:43:23.455Z,65.10
2019-02-24T23:45:52.893Z,65.00
2019-02-24T23:48:22.323Z,64.70
2019-02-24T23:50:51.785Z,64.40
2019-02-24T23:53:21.202Z,64.10
2019-02-24T23:55:50.738Z,63.90
2019-02-24T23:58:20.191Z,63.70
